CheckWX is a tool to help pilots better visualize weather data.  It is not intended as a substitute for an official pre-flight weather briefing.

21:29:07 UTC

VTCL TAF
Lampang Airport
Thailand
TAF VTCL 221700Z 2218/2318 16005KT 9999 FEW035

Nov-22@
18:00 UTC

Nov-22 @ 18:00 UTC

Nov-23@
18:00 UTC

Nov-23 @ 18:00 UTC

TAF VTCL 221700Z 2218/2318 16005KT 9999 FEW035
Wind
  • 160° at 5 KTS
Cloud Levels
  • Few at 3,500' AGL